sensor_id;sensor_type;location;lat;lon;timestamp;pressure;altitude;pressure_sealevel;temperature;humidity
11038;BME280;5572;49.540;11.932;2022-08-21T00:02:18;99293.91;;;16.27;100.00
11038;BME280;5572;49.540;11.932;2022-08-21T00:04:46;99265.94;;;16.41;100.00
11038;BME280;5572;49.540;11.932;2022-08-21T00:07:14;99204.97;;;16.31;100.00
11038;BME280;5572;49.540;11.932;2022-08-21T00:09:41;99210.06;;;16.23;100.00
11038;BME280;5572;49.540;11.932;2022-08-21T00:12:08;99212.69;;;16.13;100.00
11038;BME280;5572;49.540;11.932;2022-08-21T00:14:35;99226.72;;;16.26;100.00
11038;BME280;5572;49.540;11.932;2022-08-21T00:17:03;99159.78;;;16.19;100.00
11038;BME280;5572;49.540;11.932;2022-08-21T00:19:30;99210.84;;;16.18;100.00
11038;BME280;5572;49.540;11.932;2022-08-21T00:21:57;99246.88;;;16.20;100.00
11038;BME280;5572;49.540;11.932;2022-08-21T00:24:25;99290.41;;;16.05;100.00
11038;BME280;5572;49.540;11.932;2022-08-21T00:26:52;99284.69;;;16.07;100.00
11038;BME280;5572;49.540;11.932;2022-08-21T00:29:19;99312.50;;;16.04;100.00
11038;BME280;5572;49.540;11.932;2022-08-21T00:31:46;99366.81;;;16.05;100.00
11038;BME280;5572;49.540;11.932;2022-08-21T00:34:13;99336.78;;;16.05;100.00
11038;BME280;5572;49.540;11.932;2022-08-21T00:36:40;99277.59;;;16.06;100.00
11038;BME280;5572;49.540;11.932;2022-08-21T00:39:07;99264.16;;;15.99;100.00
11038;BME280;5572;49.540;11.932;2022-08-21T00:41:37;99302.47;;;16.09;100.00
11038;BME280;5572;49.540;11.932;2022-08-21T00:44:05;99285.72;;;16.01;100.00
11038;BME280;5572;49.540;11.932;2022-08-21T00:46:31;99331.38;;;15.84;100.00
11038;BME280;5572;49.540;11.932;2022-08-21T00:48:58;99383.44;;;15.82;100.00
11038;BME280;5572;49.540;11.932;2022-08-21T00:51:30;99443.22;;;15.84;100.00
11038;BME280;5572;49.540;11.932;2022-08-21T00:54:01;99530.41;;;15.79;100.00
11038;BME280;5572;49.540;11.932;2022-08-21T00:56:28;99546.94;;;15.89;100.00
11038;BME280;5572;49.540;11.932;2022-08-21T00:58:57;99537.81;;;16.00;100.00
11038;BME280;5572;49.540;11.932;2022-08-21T01:01:25;99531.75;;;15.76;100.00
11038;BME280;5572;49.540;11.932;2022-08-21T01:03:52;99577.22;;;15.71;100.00
11038;BME280;5572;49.540;11.932;2022-08-21T01:06:19;99558.06;;;15.66;100.00
11038;BME280;5572;49.540;11.932;2022-08-21T01:08:46;99640.38;;;15.79;100.00
11038;BME280;5572;49.540;11.932;2022-08-21T01:11:13;99689.88;;;15.71;100.00
11038;BME280;5572;49.540;11.932;2022-08-21T01:13:40;99700.91;;;15.49;100.00
11038;BME280;5572;49.540;11.932;2022-08-21T01:16:15;99703.63;;;15.49;100.00
11038;BME280;5572;49.540;11.932;2022-08-21T01:18:43;99715.38;;;15.65;100.00
11038;BME280;5572;49.540;11.932;2022-08-21T01:21:14;99707.47;;;15.64;100.00
11038;BME280;5572;49.540;11.932;2022-08-21T01:23:42;99631.81;;;15.43;100.00
11038;BME280;5572;49.540;11.932;2022-08-21T01:26:10;99581.84;;;15.38;100.00
11038;BME280;5572;49.540;11.932;2022-08-21T01:28:42;99663.00;;;15.47;100.00
11038;BME280;5572;49.540;11.932;2022-08-21T01:31:10;99747.25;;;15.49;100.00
11038;BME280;5572;49.540;11.932;2022-08-21T01:33:38;99788.63;;;15.46;100.00
11038;BME280;5572;49.540;11.932;2022-08-21T01:36:05;99688.28;;;15.31;100.00
11038;BME280;5572;49.540;11.932;2022-08-21T01:38:33;99677.63;;;15.30;100.00
11038;BME280;5572;49.540;11.932;2022-08-21T01:40:59;99603.06;;;15.36;100.00
11038;BME280;5572;49.540;11.932;2022-08-21T01:43:26;99557.78;;;15.35;100.00
11038;BME280;5572;49.540;11.932;2022-08-21T01:45:53;99442.22;;;15.19;100.00
11038;BME280;5572;49.540;11.932;2022-08-21T01:48:19;99473.44;;;15.28;100.00
11038;BME280;5572;49.540;11.932;2022-08-21T01:50:46;99530.13;;;15.26;100.00
11038;BME280;5572;49.540;11.932;2022-08-21T01:53:12;99603.53;;;15.33;100.00
11038;BME280;5572;49.540;11.932;2022-08-21T01:55:41;99577.19;;;15.38;100.00
11038;BME280;5572;49.540;11.932;2022-08-21T01:58:08;99566.22;;;15.33;100.00
11038;BME280;5572;49.540;11.932;2022-08-21T02:00:35;99573.75;;;15.26;100.00
11038;BME280;5572;49.540;11.932;2022-08-21T02:03:01;99642.81;;;15.32;100.00
11038;BME280;5572;49.540;11.932;2022-08-21T02:05:28;99646.78;;;15.41;100.00
11038;BME280;5572;49.540;11.932;2022-08-21T02:07:55;99654.50;;;15.32;100.00
11038;BME280;5572;49.540;11.932;2022-08-21T02:10:24;99735.72;;;15.19;100.00
11038;BME280;5572;49.540;11.932;2022-08-21T02:12:53;99713.66;;;15.20;100.00
11038;BME280;5572;49.540;11.932;2022-08-21T02:15:20;99717.25;;;15.09;100.00
11038;BME280;5572;49.540;11.932;2022-08-21T02:17:49;99822.22;;;15.12;100.00
11038;BME280;5572;49.540;11.932;2022-08-21T02:20:19;99790.69;;;15.16;100.00
11038;BME280;5572;49.540;11.932;2022-08-21T02:22:45;99747.19;;;15.21;100.00
11038;BME280;5572;49.540;11.932;2022-08-21T02:25:12;99775.31;;;14.98;100.00
11038;BME280;5572;49.540;11.932;2022-08-21T02:27:39;99844.47;;;14.97;100.00
11038;BME280;5572;49.540;11.932;2022-08-21T02:30:10;99849.94;;;15.09;100.00
11038;BME280;5572;49.540;11.932;2022-08-21T02:32:37;99875.03;;;14.99;100.00
11038;BME280;5572;49.540;11.932;2022-08-21T02:35:04;99823.16;;;15.06;100.00
11038;BME280;5572;49.540;11.932;2022-08-21T02:37:31;99740.25;;;15.02;100.00
11038;BME280;5572;49.540;11.932;2022-08-21T02:39:59;99702.59;;;14.99;100.00
11038;BME280;5572;49.540;11.932;2022-08-21T02:42:25;99735.41;;;14.92;100.00
11038;BME280;5572;49.540;11.932;2022-08-21T02:44:52;99785.50;;;14.91;100.00
11038;BME280;5572;49.540;11.932;2022-08-21T02:47:20;99791.78;;;15.03;100.00
11038;BME280;5572;49.540;11.932;2022-08-21T02:49:46;99781.69;;;15.15;100.00
11038;BME280;5572;49.540;11.932;2022-08-21T02:52:13;99781.13;;;15.02;100.00
11038;BME280;5572;49.540;11.932;2022-08-21T02:54:39;99816.78;;;15.12;100.00
11038;BME280;5572;49.540;11.932;2022-08-21T02:57:06;99876.00;;;15.05;100.00
11038;BME280;5572;49.540;11.932;2022-08-21T02:59:33;99879.53;;;15.17;100.00
11038;BME280;5572;49.540;11.932;2022-08-21T03:01:59;99856.44;;;15.19;100.00
11038;BME280;5572;49.540;11.932;2022-08-21T03:04:27;99902.16;;;15.17;100.00
11038;BME280;5572;49.540;11.932;2022-08-21T03:06:54;99911.69;;;15.26;100.00
11038;BME280;5572;49.540;11.932;2022-08-21T03:09:20;99910.97;;;15.42;100.00
11038;BME280;5572;49.540;11.932;2022-08-21T03:11:47;99879.53;;;15.51;100.00
11038;BME280;5572;49.540;11.932;2022-08-21T03:14:13;99904.78;;;15.47;100.00
11038;BME280;5572;49.540;11.932;2022-08-21T03:16:40;99971.06;;;15.36;100.00
11038;BME280;5572;49.540;11.932;2022-08-21T03:19:07;100060.81;;;15.60;100.00
11038;BME280;5572;49.540;11.932;2022-08-21T03:21:35;100102.72;;;15.77;100.00
11038;BME280;5572;49.540;11.932;2022-08-21T03:24:02;100015.03;;;15.73;100.00
11038;BME280;5572;49.540;11.932;2022-08-21T03:26:30;100038.31;;;15.76;100.00
11038;BME280;5572;49.540;11.932;2022-08-21T03:28:56;99989.06;;;15.71;100.00
11038;BME280;5572;49.540;11.932;2022-08-21T03:31:23;100027.16;;;15.66;100.00
11038;BME280;5572;49.540;11.932;2022-08-21T03:33:53;100054.78;;;15.81;100.00
11038;BME280;5572;49.540;11.932;2022-08-21T09:39:25;99306.50;;;20.49;100.00
11038;BME280;5572;49.540;11.932;2022-08-21T09:41:56;99288.75;;;19.83;100.00
11038;BME280;5572;49.540;11.932;2022-08-21T09:44:26;99290.41;;;20.32;100.00
11038;BME280;5572;49.540;11.932;2022-08-21T09:46:53;99344.53;;;20.70;100.00
11038;BME280;5572;49.540;11.932;2022-08-21T09:49:27;99270.16;;;20.57;100.00
11038;BME280;5572;49.540;11.932;2022-08-21T09:51:55;99270.47;;;20.12;100.00
11038;BME280;5572;49.540;11.932;2022-08-21T09:54:26;99313.97;;;21.10;100.00
11038;BME280;5572;49.540;11.932;2022-08-21T09:56:57;99237.66;;;21.20;100.00
11038;BME280;5572;49.540;11.932;2022-08-21T09:59:42;99134.66;;;20.28;100.00
11038;BME280;5572;49.540;11.932;2022-08-21T10:02:30;99145.81;;;20.41;100.00
11038;BME280;5572;49.540;11.932;2022-08-21T10:04:59;99141.88;;;21.22;100.00
11038;BME280;5572;49.540;11.932;2022-08-21T10:07:28;99244.91;;;22.00;100.00
11038;BME280;5572;49.540;11.932;2022-08-21T10:10:03;99361.19;;;21.50;100.00
11038;BME280;5572;49.540;11.932;2022-08-21T10:12:37;99224.38;;;21.04;100.00
11038;BME280;5572;49.540;11.932;2022-08-21T10:15:15;99414.78;;;21.29;100.00
11038;BME280;5572;49.540;11.932;2022-08-21T10:18:04;99446.75;;;21.82;100.00
11038;BME280;5572;49.540;11.932;2022-08-21T10:20:38;99465.28;;;21.76;100.00
11038;BME280;5572;49.540;11.932;2022-08-21T10:23:28;99340.75;;;21.56;100.00
11038;BME280;5572;49.540;11.932;2022-08-21T10:26:06;99308.72;;;23.12;100.00
11038;BME280;5572;49.540;11.932;2022-08-21T10:28:40;99048.91;;;22.78;100.00
11038;BME280;5572;49.540;11.932;2022-08-21T10:31:16;98669.53;;;22.72;100.00
11038;BME280;5572;49.540;11.932;2022-08-21T10:33:52;98459.69;;;22.99;100.00
11038;BME280;5572;49.540;11.932;2022-08-21T10:36:26;98423.00;;;23.58;100.00
11038;BME280;5572;49.540;11.932;2022-08-21T10:39:03;98367.28;;;23.47;100.00
11038;BME280;5572;49.540;11.932;2022-08-21T10:41:47;98324.53;;;23.79;100.00
11038;BME280;5572;49.540;11.932;2022-08-21T10:44:25;98246.56;;;23.65;100.00
11038;BME280;5572;49.540;11.932;2022-08-21T10:47:01;98220.69;;;23.78;100.00
11038;BME280;5572;49.540;11.932;2022-08-21T10:49:38;98180.94;;;23.91;100.00
11038;BME280;5572;49.540;11.932;2022-08-21T10:52:25;98079.09;;;23.40;100.00
11038;BME280;5572;49.540;11.932;2022-08-21T10:55:02;98038.16;;;23.62;100.00
11038;BME280;5572;49.540;11.932;2022-08-21T10:57:37;97959.75;;;23.55;100.00
11038;BME280;5572;49.540;11.932;2022-08-21T11:00:10;97915.84;;;23.82;100.00
11038;BME280;5572;49.540;11.932;2022-08-21T11:02:41;97861.47;;;23.74;100.00
11038;BME280;5572;49.540;11.932;2022-08-21T11:05:13;97804.91;;;23.92;100.00
11038;BME280;5572;49.540;11.932;2022-08-21T11:07:44;97712.94;;;23.80;100.00
11038;BME280;5572;49.540;11.932;2022-08-21T11:10:19;97626.97;;;23.10;100.00
11038;BME280;5572;49.540;11.932;2022-08-21T11:12:52;97607.00;;;24.27;100.00
11038;BME280;5572;49.540;11.932;2022-08-21T11:15:31;97371.53;;;22.97;100.00
11038;BME280;5572;49.540;11.932;2022-08-21T11:18:10;97381.66;;;24.30;100.00
11038;BME280;5572;49.540;11.932;2022-08-21T11:20:44;97258.28;;;24.56;100.00
11038;BME280;5572;49.540;11.932;2022-08-21T11:23:16;97299.84;;;25.13;100.00
11038;BME280;5572;49.540;11.932;2022-08-21T11:25:48;97240.19;;;24.77;100.00
11038;BME280;5572;49.540;11.932;2022-08-21T11:28:22;97210.88;;;24.04;100.00
11038;BME280;5572;49.540;11.932;2022-08-21T11:31:00;97283.94;;;24.22;100.00
11038;BME280;5572;49.540;11.932;2022-08-21T11:33:43;97194.84;;;24.82;100.00
11038;BME280;5572;49.540;11.932;2022-08-21T11:36:20;97082.38;;;24.89;100.00
11038;BME280;5572;49.540;11.932;2022-08-21T11:38:57;96976.44;;;25.37;100.00
11038;BME280;5572;49.540;11.932;2022-08-21T11:41:29;96925.91;;;24.92;100.00
11038;BME280;5572;49.540;11.932;2022-08-21T11:44:04;96751.03;;;25.09;100.00
11038;BME280;5572;49.540;11.932;2022-08-21T11:46:40;96825.31;;;25.32;100.00
11038;BME280;5572;49.540;11.932;2022-08-21T11:49:32;96654.44;;;24.97;100.00
11038;BME280;5572;49.540;11.932;2022-08-21T11:52:08;96620.06;;;25.30;100.00
11038;BME280;5572;49.540;11.932;2022-08-21T11:54:40;96366.28;;;24.84;100.00
11038;BME280;5572;49.540;11.932;2022-08-21T11:57:16;96375.81;;;24.43;100.00
11038;BME280;5572;49.540;11.932;2022-08-21T11:59:55;96550.91;;;25.41;100.00
11038;BME280;5572;49.540;11.932;2022-08-21T12:02:28;96465.03;;;25.27;100.00
11038;BME280;5572;49.540;11.932;2022-08-21T12:04:59;96181.31;;;24.69;100.00
11038;BME280;5572;49.540;11.932;2022-08-21T12:07:33;96207.13;;;25.01;100.00
11038;BME280;5572;49.540;11.932;2022-08-21T12:10:02;96225.06;;;25.34;100.00
11038;BME280;5572;49.540;11.932;2022-08-21T12:12:31;96268.91;;;25.22;100.00
11038;BME280;5572;49.540;11.932;2022-08-21T12:15:23;96161.03;;;26.23;100.00
11038;BME280;5572;49.540;11.932;2022-08-21T12:17:54;95859.41;;;24.87;100.00
11038;BME280;5572;49.540;11.932;2022-08-21T12:20:59;95857.41;;;25.02;100.00
11038;BME280;5572;49.540;11.932;2022-08-21T12:23:29;96021.44;;;25.16;100.00
11038;BME280;5572;49.540;11.932;2022-08-21T12:26:09;96008.41;;;25.27;100.00
11038;BME280;5572;49.540;11.932;2022-08-21T12:28:37;95787.78;;;25.27;100.00
11038;BME280;5572;49.540;11.932;2022-08-21T12:31:17;95730.03;;;25.40;100.00
11038;BME280;5572;49.540;11.932;2022-08-21T12:33:51;95718.63;;;25.24;100.00
11038;BME280;5572;49.540;11.932;2022-08-21T12:36:21;95619.09;;;25.17;100.00
11038;BME280;5572;49.540;11.932;2022-08-21T12:38:54;95832.97;;;25.96;100.00
11038;BME280;5572;49.540;11.932;2022-08-21T12:41:26;95699.03;;;25.62;100.00
11038;BME280;5572;49.540;11.932;2022-08-21T12:43:57;95473.03;;;24.88;100.00
11038;BME280;5572;49.540;11.932;2022-08-21T12:46:31;95626.94;;;26.20;100.00
11038;BME280;5572;49.540;11.932;2022-08-21T12:49:03;95429.00;;;26.21;100.00
11038;BME280;5572;49.540;11.932;2022-08-21T12:51:38;95223.84;;;25.79;100.00
11038;BME280;5572;49.540;11.932;2022-08-21T12:54:10;95141.47;;;26.51;100.00
11038;BME280;5572;49.540;11.932;2022-08-21T12:56:36;95076.69;;;26.61;100.00
11038;BME280;5572;49.540;11.932;2022-08-21T12:59:06;94947.16;;;25.23;100.00
11038;BME280;5572;49.540;11.932;2022-08-21T13:01:38;95232.78;;;25.60;100.00
11038;BME280;5572;49.540;11.932;2022-08-21T13:04:09;95371.09;;;25.67;100.00
11038;BME280;5572;49.540;11.932;2022-08-21T13:06:42;94958.00;;;25.98;100.00
11038;BME280;5572;49.540;11.932;2022-08-21T13:09:11;94623.91;;;26.20;100.00
11038;BME280;5572;49.540;11.932;2022-08-21T13:11:40;94651.41;;;26.27;100.00
11038;BME280;5572;49.540;11.932;2022-08-21T13:14:14;94549.44;;;26.91;100.00
11038;BME280;5572;49.540;11.932;2022-08-21T13:16:45;94380.38;;;26.50;100.00
11038;BME280;5572;49.540;11.932;2022-08-21T13:19:17;94047.78;;;26.50;100.00
11038;BME280;5572;49.540;11.932;2022-08-21T13:21:44;94191.53;;;27.07;100.00
11038;BME280;5572;49.540;11.932;2022-08-21T13:24:18;93691.56;;;25.49;100.00
11038;BME280;5572;49.540;11.932;2022-08-21T13:26:45;94057.16;;;27.08;100.00
11038;BME280;5572;49.540;11.932;2022-08-21T13:29:13;93824.84;;;26.51;100.00
11038;BME280;5572;49.540;11.932;2022-08-21T13:31:45;93835.88;;;27.30;100.00
11038;BME280;5572;49.540;11.932;2022-08-21T13:34:16;93802.88;;;27.14;100.00
11038;BME280;5572;49.540;11.932;2022-08-21T13:36:44;93796.25;;;26.63;100.00
11038;BME280;5572;49.540;11.932;2022-08-21T13:39:15;93713.91;;;26.24;100.00
11038;BME280;5572;49.540;11.932;2022-08-21T13:41:44;93626.16;;;25.64;100.00
11038;BME280;5572;49.540;11.932;2022-08-21T13:44:17;94027.53;;;26.19;100.00
11038;BME280;5572;49.540;11.932;2022-08-21T13:46:44;94512.50;;;25.52;100.00
11038;BME280;5572;49.540;11.932;2022-08-21T13:49:13;94235.81;;;25.77;100.00
11038;BME280;5572;49.540;11.932;2022-08-21T13:51:43;94162.28;;;26.01;100.00
11038;BME280;5572;49.540;11.932;2022-08-21T13:54:21;94176.91;;;26.60;100.00
11038;BME280;5572;49.540;11.932;2022-08-21T13:56:49;94207.34;;;26.85;100.00
11038;BME280;5572;49.540;11.932;2022-08-21T13:59:27;94179.97;;;26.16;100.00
11038;BME280;5572;49.540;11.932;2022-08-21T14:01:56;94249.47;;;25.43;100.00
11038;BME280;5572;49.540;11.932;2022-08-21T14:04:31;94067.97;;;25.33;100.00
11038;BME280;5572;49.540;11.932;2022-08-21T14:07:03;94035.91;;;26.28;100.00
11038;BME280;5572;49.540;11.932;2022-08-21T14:09:42;93983.47;;;26.55;100.00
11038;BME280;5572;49.540;11.932;2022-08-21T14:12:13;93800.69;;;26.43;100.00
11038;BME280;5572;49.540;11.932;2022-08-21T14:14:41;93594.53;;;26.76;100.00
11038;BME280;5572;49.540;11.932;2022-08-21T14:17:12;93694.53;;;26.24;100.00
11038;BME280;5572;49.540;11.932;2022-08-21T14:19:42;93967.66;;;26.01;100.00
11038;BME280;5572;49.540;11.932;2022-08-21T14:22:27;93510.31;;;25.84;100.00
11038;BME280;5572;49.540;11.932;2022-08-21T14:25:00;93634.25;;;26.82;100.00
11038;BME280;5572;49.540;11.932;2022-08-21T14:27:29;93554.97;;;26.31;100.00
11038;BME280;5572;49.540;11.932;2022-08-21T14:29:58;93260.66;;;26.36;100.00
11038;BME280;5572;49.540;11.932;2022-08-21T14:32:28;93385.09;;;26.75;100.00
11038;BME280;5572;49.540;11.932;2022-08-21T14:34:56;93366.22;;;26.56;100.00
11038;BME280;5572;49.540;11.932;2022-08-21T14:37:24;93551.44;;;26.48;100.00
11038;BME280;5572;49.540;11.932;2022-08-21T14:39:51;93513.38;;;25.86;100.00
11038;BME280;5572;49.540;11.932;2022-08-21T14:42:18;93751.53;;;25.31;100.00
11038;BME280;5572;49.540;11.932;2022-08-21T14:44:45;93890.25;;;26.40;100.00
11038;BME280;5572;49.540;11.932;2022-08-21T14:47:12;93512.47;;;25.98;100.00
11038;BME280;5572;49.540;11.932;2022-08-21T14:49:38;93536.63;;;25.89;100.00
11038;BME280;5572;49.540;11.932;2022-08-21T14:52:05;93823.34;;;25.56;100.00
11038;BME280;5572;49.540;11.932;2022-08-21T14:54:33;93818.28;;;25.54;100.00
11038;BME280;5572;49.540;11.932;2022-08-21T14:57:02;93885.63;;;25.60;100.00
11038;BME280;5572;49.540;11.932;2022-08-21T14:59:30;94050.72;;;25.29;100.00
11038;BME280;5572;49.540;11.932;2022-08-21T15:01:58;94228.13;;;25.16;100.00
11038;BME280;5572;49.540;11.932;2022-08-21T15:04:25;94182.66;;;26.19;100.00
11038;BME280;5572;49.540;11.932;2022-08-21T15:06:51;94041.06;;;26.39;100.00
11038;BME280;5572;49.540;11.932;2022-08-21T15:09:18;93939.72;;;26.29;100.00
11038;BME280;5572;49.540;11.932;2022-08-21T15:11:46;93709.19;;;25.95;100.00
11038;BME280;5572;49.540;11.932;2022-08-21T15:14:18;93573.41;;;26.16;100.00
11038;BME280;5572;49.540;11.932;2022-08-21T15:16:46;94132.69;;;26.23;100.00
11038;BME280;5572;49.540;11.932;2022-08-21T15:19:13;94033.00;;;26.32;100.00
11038;BME280;5572;49.540;11.932;2022-08-21T15:21:40;94210.88;;;26.27;100.00
11038;BME280;5572;49.540;11.932;2022-08-21T15:24:06;94343.41;;;26.04;100.00
11038;BME280;5572;49.540;11.932;2022-08-21T15:26:33;93895.78;;;25.97;100.00
11038;BME280;5572;49.540;11.932;2022-08-21T15:29:02;94186.66;;;26.18;100.00
11038;BME280;5572;49.540;11.932;2022-08-21T15:31:30;94196.03;;;26.46;100.00
11038;BME280;5572;49.540;11.932;2022-08-21T15:33:57;93934.50;;;26.52;100.00
11038;BME280;5572;49.540;11.932;2022-08-21T15:36:23;93779.91;;;26.47;100.00
11038;BME280;5572;49.540;11.932;2022-08-21T15:38:50;93621.84;;;26.03;100.00
11038;BME280;5572;49.540;11.932;2022-08-21T15:41:17;93531.84;;;26.16;100.00
11038;BME280;5572;49.540;11.932;2022-08-21T15:43:46;93645.81;;;25.88;100.00
11038;BME280;5572;49.540;11.932;2022-08-21T15:46:17;93693.75;;;26.15;100.00
11038;BME280;5572;49.540;11.932;2022-08-21T15:48:44;93675.19;;;25.85;100.00
11038;BME280;5572;49.540;11.932;2022-08-21T15:51:14;93668.50;;;25.22;100.00
11038;BME280;5572;49.540;11.932;2022-08-21T15:53:41;93463.66;;;25.65;100.00
11038;BME280;5572;49.540;11.932;2022-08-21T15:56:14;93471.59;;;25.06;100.00
11038;BME280;5572;49.540;11.932;2022-08-21T15:58:43;93638.28;;;25.58;100.00
11038;BME280;5572;49.540;11.932;2022-08-21T16:01:10;93790.50;;;25.24;100.00
11038;BME280;5572;49.540;11.932;2022-08-21T16:03:38;94004.88;;;25.41;100.00
11038;BME280;5572;49.540;11.932;2022-08-21T16:06:05;93772.59;;;25.50;100.00
11038;BME280;5572;49.540;11.932;2022-08-21T16:08:31;93605.19;;;25.45;100.00
11038;BME280;5572;49.540;11.932;2022-08-21T16:10:59;93651.59;;;25.20;100.00
11038;BME280;5572;49.540;11.932;2022-08-21T16:13:29;93888.00;;;25.83;100.00
11038;BME280;5572;49.540;11.932;2022-08-21T16:15:59;93660.09;;;25.56;100.00
11038;BME280;5572;49.540;11.932;2022-08-21T16:18:26;93692.16;;;25.23;100.00
11038;BME280;5572;49.540;11.932;2022-08-21T16:20:54;93845.13;;;25.88;100.00
11038;BME280;5572;49.540;11.932;2022-08-21T16:23:21;93731.00;;;25.62;100.00
11038;BME280;5572;49.540;11.932;2022-08-21T16:25:47;93712.25;;;25.66;100.00
11038;BME280;5572;49.540;11.932;2022-08-21T16:28:17;93834.75;;;25.58;100.00
11038;BME280;5572;49.540;11.932;2022-08-21T16:30:48;94100.06;;;25.43;100.00
11038;BME280;5572;49.540;11.932;2022-08-21T16:33:21;93907.56;;;24.96;100.00
11038;BME280;5572;49.540;11.932;2022-08-21T16:35:49;94131.28;;;24.62;100.00
11038;BME280;5572;49.540;11.932;2022-08-21T16:38:17;94326.44;;;24.40;100.00
11038;BME280;5572;49.540;11.932;2022-08-21T16:40:44;94519.75;;;25.30;100.00
11038;BME280;5572;49.540;11.932;2022-08-21T16:43:11;94234.13;;;25.14;100.00
11038;BME280;5572;49.540;11.932;2022-08-21T16:45:41;94224.22;;;25.29;100.00
11038;BME280;5572;49.540;11.932;2022-08-21T16:48:08;94080.25;;;25.70;100.00
11038;BME280;5572;49.540;11.932;2022-08-21T16:50:36;93897.28;;;25.55;100.00
11038;BME280;5572;49.540;11.932;2022-08-21T16:53:03;93831.66;;;25.56;100.00
11038;BME280;5572;49.540;11.932;2022-08-21T16:55:33;93811.94;;;25.54;100.00
11038;BME280;5572;49.540;11.932;2022-08-21T16:58:01;93971.00;;;25.49;100.00
11038;BME280;5572;49.540;11.932;2022-08-21T17:00:30;93787.47;;;25.31;100.00
11038;BME280;5572;49.540;11.932;2022-08-21T17:02:56;93868.84;;;25.21;100.00
11038;BME280;5572;49.540;11.932;2022-08-21T17:05:23;93797.59;;;25.25;100.00
11038;BME280;5572;49.540;11.932;2022-08-21T17:07:49;93972.94;;;25.03;100.00
11038;BME280;5572;49.540;11.932;2022-08-21T17:10:16;94032.44;;;25.32;100.00
11038;BME280;5572;49.540;11.932;2022-08-21T17:12:48;94097.97;;;25.35;100.00
11038;BME280;5572;49.540;11.932;2022-08-21T17:15:22;94198.97;;;25.15;100.00
11038;BME280;5572;49.540;11.932;2022-08-21T17:17:49;94409.63;;;25.10;100.00
11038;BME280;5572;49.540;11.932;2022-08-21T17:20:17;94744.88;;;24.78;100.00
11038;BME280;5572;49.540;11.932;2022-08-21T17:22:44;94572.47;;;24.88;100.00
11038;BME280;5572;49.540;11.932;2022-08-21T17:25:11;94451.75;;;25.17;100.00
11038;BME280;5572;49.540;11.932;2022-08-21T17:27:39;94692.94;;;24.89;100.00
11038;BME280;5572;49.540;11.932;2022-08-21T17:30:08;95259.69;;;24.09;100.00
11038;BME280;5572;49.540;11.932;2022-08-21T17:32:35;95743.34;;;24.25;100.00
11038;BME280;5572;49.540;11.932;2022-08-21T17:35:03;95406.31;;;24.82;100.00
11038;BME280;5572;49.540;11.932;2022-08-21T17:37:30;95705.09;;;23.88;100.00
11038;BME280;5572;49.540;11.932;2022-08-21T17:39:56;95945.63;;;23.09;100.00
11038;BME280;5572;49.540;11.932;2022-08-21T17:42:23;96463.25;;;22.38;100.00
11038;BME280;5572;49.540;11.932;2022-08-21T17:44:50;96882.53;;;22.28;100.00
11038;BME280;5572;49.540;11.932;2022-08-21T17:47:18;97248.03;;;21.88;100.00
11038;BME280;5572;49.540;11.932;2022-08-21T17:49:45;97491.94;;;21.68;100.00
11038;BME280;5572;49.540;11.932;2022-08-21T17:52:11;97666.06;;;21.49;100.00
11038;BME280;5572;49.540;11.932;2022-08-21T17:54:38;97692.28;;;21.17;100.00
11038;BME280;5572;49.540;11.932;2022-08-21T17:57:06;97748.03;;;20.81;100.00
11038;BME280;5572;49.540;11.932;2022-08-21T17:59:33;97798.94;;;20.86;100.00
11038;BME280;5572;49.540;11.932;2022-08-21T18:02:02;97784.84;;;20.63;100.00
11038;BME280;5572;49.540;11.932;2022-08-21T18:04:30;97843.06;;;20.56;100.00
11038;BME280;5572;49.540;11.932;2022-08-21T18:06:57;97858.66;;;20.30;100.00
11038;BME280;5572;49.540;11.932;2022-08-21T18:09:23;97883.50;;;20.17;100.00
11038;BME280;5572;49.540;11.932;2022-08-21T18:11:52;97907.41;;;20.16;100.00
11038;BME280;5572;49.540;11.932;2022-08-21T18:14:21;97907.50;;;19.73;100.00
11038;BME280;5572;49.540;11.932;2022-08-21T18:16:50;97959.56;;;19.64;100.00
11038;BME280;5572;49.540;11.932;2022-08-21T18:19:17;97975.00;;;19.74;100.00
11038;BME280;5572;49.540;11.932;2022-08-21T18:21:47;97962.53;;;19.46;100.00
11038;BME280;5572;49.540;11.932;2022-08-21T18:24:13;98000.16;;;19.32;100.00
11038;BME280;5572;49.540;11.932;2022-08-21T18:26:40;98020.97;;;19.33;100.00
11038;BME280;5572;49.540;11.932;2022-08-21T18:29:10;98024.19;;;19.13;100.00
11038;BME280;5572;49.540;11.932;2022-08-21T18:31:39;98029.47;;;18.83;100.00
11038;BME280;5572;49.540;11.932;2022-08-21T18:34:12;98051.28;;;19.01;100.00
11038;BME280;5572;49.540;11.932;2022-08-21T18:36:42;98025.81;;;18.74;100.00
11038;BME280;5572;49.540;11.932;2022-08-21T18:39:11;98043.59;;;18.90;100.00
11038;BME280;5572;49.540;11.932;2022-08-21T18:41:37;98008.81;;;18.50;100.00
11038;BME280;5572;49.540;11.932;2022-08-21T18:44:04;98026.81;;;18.37;100.00
11038;BME280;5572;49.540;11.932;2022-08-21T18:46:30;98030.50;;;18.60;100.00
11038;BME280;5572;49.540;11.932;2022-08-21T18:48:57;98026.34;;;18.49;100.00
11038;BME280;5572;49.540;11.932;2022-08-21T18:51:23;98025.03;;;18.46;100.00
11038;BME280;5572;49.540;11.932;2022-08-21T18:53:50;98020.53;;;18.23;100.00
11038;BME280;5572;49.540;11.932;2022-08-21T18:56:18;97981.44;;;18.36;100.00
11038;BME280;5572;49.540;11.932;2022-08-21T18:58:45;97934.84;;;18.50;100.00
11038;BME280;5572;49.540;11.932;2022-08-21T19:01:12;97853.16;;;18.30;100.00
11038;BME280;5572;49.540;11.932;2022-08-21T19:03:39;97854.00;;;18.52;100.00
11038;BME280;5572;49.540;11.932;2022-08-21T19:06:06;97828.38;;;18.70;100.00
11038;BME280;5572;49.540;11.932;2022-08-21T19:08:33;97724.00;;;18.50;100.00